createdAt,value
2023-09-16T00:01:19.073Z,99.90
2023-09-16T00:03:45.869Z,99.90
2023-09-16T00:06:13.900Z,99.90
2023-09-16T00:08:41.031Z,99.90
2023-09-16T00:11:10.329Z,99.90
2023-09-16T00:13:37.496Z,99.90
2023-09-16T00:16:06.012Z,99.90
2023-09-16T00:18:32.919Z,99.90
2023-09-16T00:20:59.531Z,99.90
2023-09-16T00:23:26.131Z,99.90
2023-09-16T00:25:53.453Z,99.90
2023-09-16T00:28:20.143Z,99.90
2023-09-16T00:30:46.948Z,99.90
2023-09-16T00:33:13.694Z,99.90
2023-09-16T00:35:40.294Z,99.90
2023-09-16T00:38:06.889Z,99.90
2023-09-16T00:40:33.508Z,99.90
2023-09-16T00:43:00.225Z,99.90
2023-09-16T00:45:27.004Z,99.90
2023-09-16T00:47:53.613Z,99.90
2023-09-16T00:50:20.586Z,99.90
2023-09-16T00:52:55.106Z,99.90
2023-09-16T00:55:22.265Z,99.90
2023-09-16T00:57:49.408Z,99.90
2023-09-16T01:00:17.435Z,99.90
2023-09-16T01:02:45.170Z,99.90
2023-09-16T01:05:18.531Z,99.90
2023-09-16T01:07:48.411Z,99.90
2023-09-16T01:10:15.976Z,99.90
2023-09-16T01:12:43.199Z,99.90
2023-09-16T01:15:11.103Z,99.90
2023-09-16T01:17:41.505Z,99.90
2023-09-16T01:20:12.190Z,99.90
2023-09-16T01:22:40.308Z,99.90
2023-09-16T01:25:07.632Z,99.90
2023-09-16T01:27:34.297Z,99.90
2023-09-16T01:30:01.050Z,99.90
2023-09-16T01:32:31.196Z,99.90
2023-09-16T01:35:00.356Z,99.90
2023-09-16T01:37:27.013Z,99.90
2023-09-16T01:40:00.808Z,99.90
2023-09-16T01:42:29.899Z,99.90
2023-09-16T01:44:56.649Z,99.90
2023-09-16T01:47:23.307Z,99.90
2023-09-16T01:49:49.953Z,99.90
2023-09-16T01:52:19.569Z,99.90
2023-09-16T01:54:46.724Z,99.90
2023-09-16T01:57:13.377Z,99.90
2023-09-16T01:59:39.977Z,99.90
2023-09-16T02:02:06.579Z,99.90
2023-09-16T02:04:33.194Z,99.90
2023-09-16T02:06:59.874Z,99.90
2023-09-16T02:09:26.592Z,99.90
2023-09-16T02:11:53.281Z,99.90
2023-09-16T02:14:19.947Z,99.90
2023-09-16T02:16:46.668Z,99.90
2023-09-16T02:19:15.713Z,99.90
2023-09-16T02:21:42.378Z,99.90
2023-09-16T02:24:09.031Z,99.90
2023-09-16T02:26:35.692Z,99.90
2023-09-16T02:29:02.354Z,99.90
2023-09-16T02:31:29.009Z,99.90
2023-09-16T02:33:59.007Z,99.90
2023-09-16T02:36:27.183Z,99.90
2023-09-16T02:38:53.814Z,99.90
2023-09-16T02:41:20.401Z,99.90
2023-09-16T02:43:48.038Z,99.90
2023-09-16T02:46:14.849Z,99.90
2023-09-16T02:48:42.000Z,99.90
2023-09-16T02:51:12.575Z,99.90
2023-09-16T02:53:39.235Z,99.90
2023-09-16T02:56:06.169Z,99.90
2023-09-16T02:58:32.819Z,99.90
2023-09-16T03:00:59.550Z,99.90
2023-09-16T03:03:26.347Z,99.90
2023-09-16T03:05:52.959Z,99.90
2023-09-16T03:08:21.036Z,99.90
2023-09-16T03:10:47.741Z,99.90
2023-09-16T03:13:14.388Z,99.90
2023-09-16T03:15:44.810Z,99.90
2023-09-16T03:18:11.506Z,99.90
2023-09-16T03:20:38.107Z,99.90
2023-09-16T03:23:04.674Z,99.90
2023-09-16T03:25:31.518Z,99.90
2023-09-16T03:27:58.426Z,99.90
2023-09-16T03:30:25.096Z,99.90
2023-09-16T03:32:51.699Z,99.90
2023-09-16T03:35:20.765Z,99.90
2023-09-16T03:37:47.348Z,99.90
2023-09-16T03:40:13.915Z,99.90
2023-09-16T03:42:40.612Z,99.90
2023-09-16T03:45:18.934Z,99.90
2023-09-16T03:47:53.991Z,99.90
2023-09-16T03:50:20.835Z,99.90
2023-09-16T03:52:49.195Z,99.90
2023-09-16T03:55:16.691Z,99.90
2023-09-16T03:57:43.310Z,99.90
2023-09-16T04:00:11.999Z,99.90
2023-09-16T04:02:40.162Z,99.90
2023-09-16T04:05:07.589Z,99.90
2023-09-16T04:07:34.205Z,99.90
2023-09-16T04:10:00.891Z,99.90
2023-09-16T04:12:27.698Z,99.90
2023-09-16T04:14:54.314Z,99.90
2023-09-16T04:17:22.036Z,99.90
2023-09-16T04:19:48.723Z,99.90
2023-09-16T04:22:15.307Z,99.90
2023-09-16T04:24:41.977Z,99.90
2023-09-16T04:27:08.573Z,99.90
2023-09-16T04:29:35.158Z,99.90
2023-09-16T04:32:01.805Z,99.90
2023-09-16T04:34:28.449Z,99.90
2023-09-16T04:36:56.269Z,99.90
2023-09-16T04:39:24.575Z,99.90
2023-09-16T04:41:54.623Z,99.90
2023-09-16T04:44:21.842Z,99.90
2023-09-16T04:46:48.464Z,99.90
2023-09-16T04:49:15.153Z,99.90
2023-09-16T04:51:41.824Z,99.90
2023-09-16T04:54:11.464Z,99.90
2023-09-16T04:56:38.496Z,99.90
2023-09-16T04:59:05.491Z,99.90
2023-09-16T05:01:32.336Z,99.90
2023-09-16T05:03:59.450Z,99.90
2023-09-16T05:06:26.518Z,99.90
2023-09-16T05:08:55.450Z,99.90
2023-09-16T05:11:22.134Z,99.90
2023-09-16T05:13:51.249Z,99.90
2023-09-16T05:16:18.156Z,99.90
2023-09-16T05:18:45.078Z,99.90
2023-09-16T05:21:11.870Z,99.90
2023-09-16T05:23:39.061Z,99.90
2023-09-16T05:26:06.101Z,99.90
2023-09-16T05:28:32.723Z,99.90
2023-09-16T05:30:59.504Z,99.90
2023-09-16T05:33:26.269Z,99.90
2023-09-16T05:35:52.979Z,99.90
2023-09-16T05:38:19.600Z,99.90
2023-09-16T05:40:46.205Z,99.90
2023-09-16T05:43:12.917Z,99.90
2023-09-16T05:45:39.746Z,99.90
2023-09-16T05:48:06.675Z,99.90
2023-09-16T05:50:33.346Z,99.90
2023-09-16T05:52:59.979Z,99.90
2023-09-16T05:55:26.628Z,99.90
2023-09-16T05:57:53.472Z,99.90
2023-09-16T06:00:20.201Z,99.90
2023-09-16T06:02:46.832Z,99.90
2023-09-16T06:05:13.488Z,99.90
2023-09-16T06:07:43.274Z,99.90
2023-09-16T06:10:10.199Z,99.90
2023-09-16T06:12:36.892Z,99.90
2023-09-16T06:15:03.656Z,99.90
2023-09-16T06:17:30.353Z,99.90
2023-09-16T06:19:57.382Z,99.90
2023-09-16T06:22:24.738Z,99.90
2023-09-16T06:24:52.315Z,99.90
2023-09-16T06:27:19.203Z,99.90
2023-09-16T06:29:47.775Z,99.90
2023-09-16T06:32:15.094Z,99.90
2023-09-16T06:34:41.738Z,99.90
2023-09-16T06:37:08.546Z,99.90
2023-09-16T06:39:36.990Z,99.90
2023-09-16T06:42:07.821Z,99.90
2023-09-16T06:44:34.499Z,99.90
2023-09-16T06:47:01.159Z,99.90
2023-09-16T06:49:27.822Z,99.90
2023-09-16T06:51:54.443Z,99.90
2023-09-16T06:54:21.073Z,99.90
2023-09-16T06:56:47.699Z,99.90
2023-09-16T06:59:14.653Z,99.90
2023-09-16T07:01:41.330Z,99.90
2023-09-16T07:04:08.042Z,99.90
2023-09-16T07:06:34.835Z,99.90
2023-09-16T07:13:55.600Z,99.90
2023-09-16T07:16:22.491Z,99.90
2023-09-16T07:18:49.335Z,99.90
2023-09-16T07:21:16.220Z,99.90
2023-09-16T07:23:43.086Z,99.90
2023-09-16T07:26:09.703Z,99.90
2023-09-16T07:28:36.339Z,99.90
2023-09-16T07:31:03.019Z,99.90
2023-09-16T08:10:19.199Z,99.90
2023-09-16T08:12:45.856Z,99.90
2023-09-16T08:15:12.476Z,99.90
2023-09-16T08:17:39.228Z,99.90
2023-09-16T08:20:09.145Z,99.90
2023-09-16T08:22:35.904Z,99.90
2023-09-16T08:25:06.410Z,99.90
2023-09-16T08:27:33.113Z,99.90
2023-09-16T08:29:59.851Z,99.90
2023-09-16T08:32:29.940Z,99.90
2023-09-16T08:34:57.255Z,99.90
2023-09-16T08:42:34.405Z,99.90
2023-09-16T08:45:03.368Z,99.90
2023-09-16T08:54:52.185Z,99.90
2023-09-16T08:57:19.218Z,99.90
2023-09-16T08:59:46.932Z,99.90
2023-09-16T09:02:35.929Z,99.90
2023-09-16T09:05:03.441Z,99.90
2023-09-16T09:07:30.901Z,99.90
2023-09-16T09:09:57.941Z,99.90
2023-09-16T09:12:24.732Z,99.90
2023-09-16T09:14:51.438Z,99.90
2023-09-16T09:17:18.203Z,99.90
2023-09-16T09:19:45.148Z,99.90
2023-09-16T09:22:11.895Z,99.90
2023-09-16T09:24:38.683Z,99.90
2023-09-16T09:27:07.701Z,99.90
2023-09-16T09:29:34.382Z,99.90
2023-09-16T09:32:02.157Z,99.90
2023-09-16T09:34:29.883Z,99.90
2023-09-16T09:36:56.572Z,99.90
2023-09-16T09:39:23.314Z,99.90
2023-09-16T09:41:52.627Z,99.90
2023-09-16T09:44:19.369Z,99.90
2023-09-16T09:46:46.212Z,99.90
2023-09-16T09:49:15.222Z,99.90
2023-09-16T09:51:44.269Z,99.90
2023-09-16T09:54:11.397Z,99.90
2023-09-16T09:56:38.140Z,99.90
2023-09-16T09:59:05.234Z,99.90
2023-09-16T10:01:36.215Z,99.90
2023-09-16T10:04:05.935Z,99.90
2023-09-16T10:06:32.725Z,99.90
2023-09-16T10:08:59.415Z,99.90
2023-09-16T10:11:29.684Z,99.90
2023-09-16T10:13:56.561Z,99.90
2023-09-16T10:16:24.082Z,99.90
2023-09-16T10:18:51.185Z,99.90
2023-09-16T10:21:19.461Z,99.90
2023-09-16T10:23:46.965Z,99.90
2023-09-16T10:26:13.662Z,99.90
2023-09-16T10:28:43.893Z,99.20
2023-09-16T10:31:11.299Z,99.90
2023-09-16T10:33:38.996Z,99.10
2023-09-16T10:36:06.666Z,99.00
2023-09-16T10:38:35.112Z,97.70
2023-09-16T10:41:02.037Z,98.10
2023-09-16T10:43:28.791Z,97.00
2023-09-16T10:45:58.481Z,96.70
2023-09-16T10:48:25.616Z,96.50
2023-09-16T10:50:54.159Z,95.80
2023-09-16T10:55:49.149Z,95.10
2023-09-16T10:58:22.052Z,95.10
2023-09-16T11:00:51.706Z,95.10
2023-09-16T11:03:19.081Z,94.20
2023-09-16T11:08:12.967Z,99.90
2023-09-16T11:10:39.903Z,99.90
2023-09-16T11:13:07.257Z,99.90
2023-09-16T11:15:34.533Z,99.90
2023-09-16T11:18:02.021Z,99.90
2023-09-16T11:20:32.312Z,99.90
2023-09-16T11:23:03.050Z,99.90
2023-09-16T11:25:36.731Z,99.90
2023-09-16T11:57:34.189Z,81.50
2023-09-16T12:00:01.763Z,94.50
2023-09-16T12:02:29.079Z,85.60
2023-09-16T12:04:55.771Z,83.30
2023-09-16T12:07:25.817Z,86.00
2023-09-16T12:09:52.573Z,81.00
2023-09-16T12:12:19.526Z,81.30
2023-09-16T12:14:46.488Z,93.90
2023-09-16T12:19:48.665Z,74.80
2023-09-16T12:49:36.481Z,68.80
2023-09-16T12:52:03.568Z,70.50
2023-09-16T12:59:26.406Z,66.90
2023-09-16T13:01:55.295Z,67.80
2023-09-16T13:04:22.296Z,68.00
2023-09-16T13:06:48.987Z,65.70
2023-09-16T13:09:18.040Z,83.70
2023-09-16T13:11:44.718Z,90.70
2023-09-16T13:14:14.411Z,83.30
2023-09-16T13:16:41.223Z,79.40
2023-09-16T13:24:04.202Z,89.30
2023-09-16T13:26:32.532Z,90.40
2023-09-16T13:29:01.607Z,75.40
2023-09-16T13:31:28.600Z,76.40
2023-09-16T13:36:32.396Z,92.20
2023-09-16T13:38:59.722Z,88.30
2023-09-16T13:41:26.629Z,87.00
2023-09-16T13:43:53.723Z,61.80
2023-09-16T13:46:20.669Z,61.90
2023-09-16T13:48:49.158Z,64.30
2023-09-16T13:51:16.343Z,62.50
2023-09-16T13:53:43.437Z,60.20
2023-09-16T13:56:11.480Z,61.40
2023-09-16T13:58:38.900Z,62.20
2023-09-16T14:01:05.826Z,59.90
2023-09-16T14:03:33.007Z,61.00
2023-09-16T14:06:00.218Z,59.70
2023-09-16T14:08:27.450Z,61.70
2023-09-16T14:10:54.128Z,60.30
2023-09-16T14:13:20.923Z,65.20
2023-09-16T14:15:47.707Z,61.50
2023-09-16T14:18:15.867Z,60.80
2023-09-16T14:20:42.611Z,60.40
2023-09-16T14:23:09.404Z,61.10
2023-09-16T14:25:36.218Z,61.00
2023-09-16T14:28:03.695Z,57.60
2023-09-16T14:30:31.220Z,60.20
2023-09-16T14:32:57.967Z,59.60
2023-09-16T14:35:24.712Z,59.80
2023-09-16T14:37:52.481Z,60.80
2023-09-16T14:40:19.575Z,60.90
2023-09-16T14:42:46.234Z,61.30
2023-09-16T14:45:12.921Z,84.70
2023-09-16T14:47:39.686Z,90.40
2023-09-16T14:50:06.698Z,91.10
2023-09-16T14:52:34.321Z,89.30
2023-09-16T14:55:06.926Z,92.40
2023-09-16T14:57:33.719Z,91.90
2023-09-16T15:04:57.480Z,92.00
2023-09-16T15:07:24.394Z,60.20
2023-09-16T15:09:54.149Z,59.80
2023-09-16T15:12:21.219Z,60.00
2023-09-16T15:14:49.676Z,59.60
2023-09-16T15:17:16.410Z,60.80
2023-09-16T15:22:11.185Z,73.60
2023-09-16T15:24:37.885Z,74.50
2023-09-16T15:34:45.887Z,99.90
2023-09-16T15:37:12.575Z,91.10
2023-09-16T15:49:32.435Z,99.90
2023-09-16T15:51:59.205Z,78.60
2023-09-16T15:54:28.984Z,84.60
2023-09-16T15:56:55.742Z,76.70
2023-09-16T15:59:22.505Z,75.90
2023-09-16T16:01:49.281Z,80.30
2023-09-16T16:09:13.135Z,91.20
2023-09-16T16:19:06.072Z,62.50
2023-09-16T16:21:34.984Z,63.30
2023-09-16T16:26:35.103Z,70.40
2023-09-16T16:29:01.996Z,73.90
2023-09-16T16:31:29.273Z,72.20
2023-09-16T16:33:57.829Z,73.20
2023-09-16T16:36:24.684Z,76.10
2023-09-16T16:38:51.416Z,76.60
2023-09-16T16:41:18.116Z,77.90
2023-09-16T16:43:44.854Z,79.40
2023-09-16T16:46:12.358Z,80.20
2023-09-16T16:48:39.398Z,80.90
2023-09-16T16:51:06.114Z,81.60
2023-09-16T16:53:32.786Z,82.40
2023-09-16T16:55:59.482Z,85.60
2023-09-16T16:58:27.052Z,88.50
2023-09-16T17:00:53.899Z,89.50
2023-09-16T17:03:20.635Z,90.00
2023-09-16T17:05:48.691Z,91.10
2023-09-16T17:08:15.486Z,92.50
2023-09-16T17:13:10.571Z,94.50
2023-09-16T17:15:40.260Z,95.30
2023-09-16T17:18:07.048Z,96.40
2023-09-16T17:20:34.620Z,96.80
2023-09-16T17:23:01.358Z,97.20
2023-09-16T17:25:28.015Z,97.20
2023-09-16T17:27:54.737Z,97.30
2023-09-16T17:30:21.465Z,98.00
2023-09-16T17:32:48.217Z,97.80
2023-09-16T17:35:14.954Z,98.00
2023-09-16T17:37:41.789Z,98.30
2023-09-16T17:40:08.894Z,98.70
2023-09-16T17:42:36.677Z,99.00
2023-09-16T17:45:03.937Z,99.90
2023-09-16T17:50:00.433Z,99.70
2023-09-16T17:52:27.753Z,99.90
2023-09-16T17:54:54.820Z,99.90
2023-09-16T17:57:21.469Z,99.90
2023-09-16T17:59:48.150Z,99.90
2023-09-16T18:02:15.506Z,99.90
2023-09-16T18:04:42.368Z,99.90
2023-09-16T18:07:09.651Z,99.90
2023-09-16T18:09:36.397Z,99.90
2023-09-16T18:12:03.362Z,99.90
2023-09-16T18:16:57.134Z,99.90
2023-09-16T18:19:24.162Z,99.90
2023-09-16T18:21:51.140Z,99.90
2023-09-16T18:24:17.808Z,99.90
2023-09-16T18:26:44.484Z,99.90
2023-09-16T18:29:11.170Z,99.90
2023-09-16T18:31:37.946Z,99.90
2023-09-16T18:36:31.753Z,99.90
2023-09-16T18:38:59.473Z,99.90
2023-09-16T18:41:26.148Z,99.90
2023-09-16T18:43:53.104Z,99.90
2023-09-16T18:46:20.381Z,99.90
2023-09-16T18:48:47.344Z,99.90
2023-09-16T18:51:14.052Z,99.90
2023-09-16T18:58:36.759Z,99.90
2023-09-16T19:01:05.051Z,99.90
2023-09-16T19:03:32.574Z,99.90
2023-09-16T19:05:59.448Z,99.90
2023-09-16T19:08:26.212Z,99.90
2023-09-16T19:10:53.608Z,99.90
2023-09-16T19:13:20.613Z,99.90
2023-09-16T19:15:47.506Z,99.90
2023-09-16T19:18:15.032Z,99.90
2023-09-16T19:20:42.306Z,99.90
2023-09-16T20:07:19.530Z,99.90
2023-09-16T20:09:46.628Z,99.90
2023-09-16T20:12:13.311Z,99.90
2023-09-16T20:14:40.125Z,99.90
2023-09-16T20:19:34.291Z,99.90
2023-09-16T20:22:01.500Z,99.90
2023-09-16T20:24:29.261Z,99.90
2023-09-16T20:26:55.919Z,99.90
2023-09-16T20:29:22.989Z,99.90
2023-09-16T20:31:49.676Z,99.90
2023-09-16T20:34:16.612Z,99.90
2023-09-16T20:36:46.932Z,99.90
2023-09-16T20:39:13.622Z,99.90
2023-09-16T20:41:40.410Z,99.90
2023-09-16T20:44:07.086Z,99.90
2023-09-16T20:46:33.931Z,99.90
2023-09-16T20:49:00.740Z,99.90
2023-09-16T20:51:27.415Z,99.90
2023-09-16T20:53:54.104Z,99.90
2023-09-16T20:56:20.830Z,99.90
2023-09-16T20:58:47.779Z,99.90
2023-09-16T21:01:14.486Z,99.90
2023-09-16T21:03:41.581Z,99.90
2023-09-16T21:06:08.620Z,99.90
2023-09-16T21:08:35.269Z,99.90
2023-09-16T21:11:02.611Z,99.90
2023-09-16T21:13:29.271Z,99.90
2023-09-16T21:15:55.958Z,99.90
2023-09-16T21:18:22.737Z,99.90
2023-09-16T21:20:49.373Z,99.90
2023-09-16T21:23:16.008Z,99.90
2023-09-16T21:25:42.825Z,99.90
2023-09-16T21:28:09.588Z,99.90
2023-09-16T21:30:36.261Z,99.90
2023-09-16T21:33:03.949Z,99.90
2023-09-16T23:16:11.692Z,99.90
2023-09-16T23:18:43.789Z,99.90
2023-09-16T23:21:10.416Z,99.90
2023-09-16T23:23:37.056Z,99.90
2023-09-16T23:26:04.255Z,99.90
2023-09-16T23:28:30.898Z,99.90
2023-09-16T23:30:57.613Z,99.90
2023-09-16T23:33:24.224Z,99.90
2023-09-16T23:35:50.814Z,99.90
2023-09-16T23:38:17.431Z,99.90
2023-09-16T23:40:44.221Z,99.90
2023-09-16T23:43:12.181Z,99.90
2023-09-16T23:45:38.906Z,99.90
